Time;durP1;ratioP1;P1;durP2;ratioP2;P2;SDS_P1;SDS_P2;PMS_P1;PMS_P2;Temp;Humidity;BMP_temperature;BMP_pressure;BME280_temperature;BME280_humidity;BME280_pressure;Samples;Min_cycle;Max_cycle;Signal;HPM_P1;HPM_P2
2022/08/16 00:00:43;;;;;;;;;;;;;;;;;;5091948;28;20010;-71
2022/08/16 00:03:09;;;;;;;;;;;;;;;;;;5091769;28;20355;-69
2022/08/16 00:05:35;;;;;;;;;;;;;;;;;;5091039;28;20290;-69
2022/08/16 00:08:01;;;;;;;;;;;;;;;;;;5091662;28;19989;-70
2022/08/16 00:10:27;;;;;;;;;;;;;;;;;;5090800;28;19920;-70
2022/08/16 00:12:53;;;;;;;;;;;;;;;;;;5091630;28;20017;-70
2022/08/16 00:15:19;;;;;;;;;;;;;;;;;;5091084;28;19924;-70
2022/08/16 00:17:45;;;;;;;;;;;;;;;;;;5090404;28;19920;-70
2022/08/16 00:20:11;;;;;;;;;;;;;;;;;;5106874;28;20014;-70
2022/08/16 00:22:37;;;;;;;;;;;;;;;;;;5090920;28;19924;-70
2022/08/16 00:25:03;;;;;;;;;;;;;;;;;;5089890;28;20026;-70
2022/08/16 00:27:29;;;;;;;;;;;;;;;;;;5090682;28;19997;-70
2022/08/16 00:29:58;;;;;;;;;;;;;;;;;;5090979;28;19971;-71
2022/08/16 00:32:24;;;;;;;;;;;;;;;;;;5090721;28;19939;-70
2022/08/16 00:34:50;;;;;;;;;;;;;;;;;;5106013;28;19920;-70
2022/08/16 00:37:16;;;;;;;;;;;;;;;;;;5089007;28;19999;-73
2022/08/16 00:39:42;;;;;;;;;;;;;;;;;;5091046;28;19927;-70
2022/08/16 00:42:08;;;;;;;;;;;;;;;;;;5090503;28;20002;-70
2022/08/16 00:44:34;;;;;;;;;;;;;;;;;;5090209;28;19981;-70
2022/08/16 00:47:00;;;;;;;;;;;;;;;;;;5090664;28;19920;-70
2022/08/16 00:49:26;;;;;;;;;;;;;;;;;;5090055;28;20304;-70
2022/08/16 00:51:52;;;;;;;;;;;;;;;;;;5089185;28;19920;-70
2022/08/16 00:54:18;;;;;;;;;;;;;;;;;;5090749;28;20389;-70
2022/08/16 00:56:43;;;;;;;;;;;;;;;;;;5090566;28;20048;-69
2022/08/16 00:59:13;;;;;;;;;;;;;;;;;;5090562;28;20333;-70
2022/08/16 01:01:38;;;;;;;;;;;;;;;;;;5105437;28;19924;-69
2022/08/16 01:04:06;;;;;;;;;;;;;;;;;;5090313;28;19968;-70
2022/08/16 01:06:32;;;;;;;;;;;;;;;;;;5089879;28;19920;-70
2022/08/16 01:08:58;;;;;;;;;;;;;;;;;;5090194;28;20272;-69
2022/08/16 01:11:24;;;;;;;;;;;;;;;;;;5090006;28;19935;-70
2022/08/16 01:13:50;;;;;;;;;;;;;;;;;;5089813;28;19924;-69
2022/08/16 01:16:16;;;;;;;;;;;;;;;;;;5089799;28;20022;-69
2022/08/16 01:18:43;;;;;;;;;;;;;;;;;;5089505;28;20225;-69
2022/08/16 01:21:09;;;;;;;;;;;;;;;;;;5089914;28;19963;-70
2022/08/16 01:23:34;;;;;;;;;;;;;;;;;;5089542;28;19920;-69
2022/08/16 01:26:00;;;;;;;;;;;;;;;;;;5089715;28;19931;-69
2022/08/16 01:28:27;;;;;;;;;;;;;;;;;;5089362;28;19945;-71
2022/08/16 01:30:53;;;;;;;;;;;;;;;;;;5089669;28;19927;-70
2022/08/16 01:33:18;;;;;;;;;;;;;;;;;;5089492;28;19924;-70
2022/08/16 01:35:44;;;;;;;;;;;;;;;;;;5104619;28;19988;-70
2022/08/16 01:38:10;;;;;;;;;;;;;;;;;;5089766;28;19920;-70
2022/08/16 01:40:36;;;;;;;;;;;;;;;;;;5089362;28;19932;-70
2022/08/16 01:43:03;;;;;;;;;;;;;;;;;;5089682;28;19924;-70
2022/08/16 01:45:29;;;;;;;;;;;;;;;;;;5089208;28;19924;-70
2022/08/16 01:47:55;;;;;;;;;;;;;;;;;;5089356;28;19938;-70
2022/08/16 01:50:21;;;;;;;;;;;;;;;;;;5089398;28;20248;-70
2022/08/16 01:52:47;;;;;;;;;;;;;;;;;;5088983;28;20260;-69
2022/08/16 01:55:13;;;;;;;;;;;;;;;;;;5089390;28;19920;-70
2022/08/16 01:57:39;;;;;;;;;;;;;;;;;;5089084;28;19930;-70
2022/08/16 02:00:05;;;;;;;;;;;;;;;;;;5089366;28;19920;-70
2022/08/16 02:02:31;;;;;;;;;;;;;;;;;;5087567;28;19928;-70
2022/08/16 02:04:58;;;;;;;;;;;;;;;;;;5089599;28;20051;-70
2022/08/16 02:07:24;;;;;;;;;;;;;;;;;;5089566;28;20268;-70
2022/08/16 02:09:50;;;;;;;;;;;;;;;;;;5089081;28;19930;-70
2022/08/16 02:12:16;;;;;;;;;;;;;;;;;;5089074;28;20317;-70
2022/08/16 02:14:42;;;;;;;;;;;;;;;;;;5087357;28;19972;-70
2022/08/16 02:17:08;;;;;;;;;;;;;;;;;;5089884;28;20014;-68
2022/08/16 02:19:34;;;;;;;;;;;;;;;;;;5088785;28;20336;-68
2022/08/16 02:22:00;;;;;;;;;;;;;;;;;;5089222;28;20363;-68
2022/08/16 02:24:26;;;;;;;;;;;;;;;;;;5089216;28;20312;-68
2022/08/16 02:26:52;;;;;;;;;;;;;;;;;;5088531;28;20365;-68
2022/08/16 02:29:18;;;;;;;;;;;;;;;;;;5088906;28;20278;-68
2022/08/16 02:31:47;;;;;;;;;;;;;;;;;;5088165;28;20382;-68
2022/08/16 02:34:13;;;;;;;;;;;;;;;;;;5088646;28;19946;-68
2022/08/16 02:36:39;;;;;;;;;;;;;;;;;;5088509;28;20012;-68
2022/08/16 02:39:05;;;;;;;;;;;;;;;;;;5104324;28;20294;-68
2022/08/16 02:41:32;;;;;;;;;;;;;;;;;;5088325;28;19970;-68
2022/08/16 02:43:58;;;;;;;;;;;;;;;;;;5088718;28;19974;-68
2022/08/16 02:46:24;;;;;;;;;;;;;;;;;;5088519;28;20323;-68
2022/08/16 02:48:50;;;;;;;;;;;;;;;;;;5088371;28;19920;-68
2022/08/16 02:51:16;;;;;;;;;;;;;;;;;;5089839;28;20339;-67
2022/08/16 02:53:42;;;;;;;;;;;;;;;;;;5089082;28;19920;-67
2022/08/16 02:56:09;;;;;;;;;;;;;;;;;;5088893;28;20010;-67
2022/08/16 02:58:35;;;;;;;;;;;;;;;;;;5088148;28;19968;-68
2022/08/16 03:01:01;;;;;;;;;;;;;;;;;;5088310;28;19995;-68
2022/08/16 03:03:27;;;;;;;;;;;;;;;;;;5088636;28;20015;-67
2022/08/16 03:05:54;;;;;;;;;;;;;;;;;;5088177;28;20327;-67
2022/08/16 03:08:20;;;;;;;;;;;;;;;;;;5088772;28;19924;-67
2022/08/16 03:10:48;;;;;;;;;;;;;;;;;;5088051;28;19946;-69
2022/08/16 03:13:14;;;;;;;;;;;;;;;;;;5088504;28;19942;-67
2022/08/16 03:15:40;;;;;;;;;;;;;;;;;;5086295;28;19931;-68
2022/08/16 03:18:06;;;;;;;;;;;;;;;;;;5088569;28;19993;-67
2022/08/16 03:20:32;;;;;;;;;;;;;;;;;;5088524;28;20057;-67
2022/08/16 03:22:58;;;;;;;;;;;;;;;;;;5088047;28;19928;-67
2022/08/16 03:25:24;;;;;;;;;;;;;;;;;;5088255;28;19942;-69
2022/08/16 03:27:50;;;;;;;;;;;;;;;;;;5087694;28;19949;-67
2022/08/16 03:30:16;;;;;;;;;;;;;;;;;;5088644;28;19949;-68
2022/08/16 03:32:42;;;;;;;;;;;;;;;;;;5088147;28;20033;-68
2022/08/16 03:35:08;;;;;;;;;;;;;;;;;;5088111;28;19930;-68
2022/08/16 03:37:34;;;;;;;;;;;;;;;;;;5088357;28;19920;-68
2022/08/16 03:40:00;;;;;;;;;;;;;;;;;;5088359;28;19939;-68
2022/08/16 03:42:26;;;;;;;;;;;;;;;;;;5088865;28;19958;-68
2022/08/16 03:44:52;;;;;;;;;;;;;;;;;;5087713;28;20027;-68
2022/08/16 03:47:18;;;;;;;;;;;;;;;;;;5088138;28;20079;-69
2022/08/16 03:49:46;;;;;;;;;;;;;;;;;;5087867;28;19920;-68
2022/08/16 03:52:12;;;;;;;;;;;;;;;;;;5087915;28;20332;-68
2022/08/16 03:54:38;;;;;;;;;;;;;;;;;;5090791;28;20312;-67
2022/08/16 03:57:04;;;;;;;;;;;;;;;;;;5091120;28;19971;-68
2022/08/16 03:59:30;;;;;;;;;;;;;;;;;;5091469;28;19938;-67
2022/08/16 04:01:56;;;;;;;;;;;;;;;;;;5091210;28;19999;-68
2022/08/16 04:04:22;;;;;;;;;;;;;;;;;;5091559;28;20287;-68
2022/08/16 04:06:48;;;;;;;;;;;;;;;;;;5090832;28;20328;-68
2022/08/16 04:09:14;;;;;;;;;;;;;;;;;;5091516;28;19931;-68
2022/08/16 04:11:40;;;;;;;;;;;;;;;;;;5091180;28;19939;-68
2022/08/16 04:14:07;;;;;;;;;;;;;;;;;;5090374;28;19920;-67
2022/08/16 04:16:32;;;;;;;;;;;;;;;;;;5090889;28;20339;-67
2022/08/16 04:18:59;;;;;;;;;;;;;;;;;;5089985;28;19920;-68
2022/08/16 04:21:25;;;;;;;;;;;;;;;;;;5090435;28;19920;-68
2022/08/16 04:23:51;;;;;;;;;;;;;;;;;;5089626;28;19969;-68
2022/08/16 04:26:17;;;;;;;;;;;;;;;;;;5105342;28;20030;-68
2022/08/16 04:28:43;;;;;;;;;;;;;;;;;;5105390;28;20091;-67
2022/08/16 04:31:09;;;;;;;;;;;;;;;;;;5089211;28;19935;-70
2022/08/16 04:33:34;;;;;;;;;;;;;;;;;;5089955;28;19959;-69
2022/08/16 04:36:00;;;;;;;;;;;;;;;;;;5089023;28;20336;-68
2022/08/16 04:38:26;;;;;;;;;;;;;;;;;;5089389;28;20004;-68
2022/08/16 04:40:52;;;;;;;;;;;;;;;;;;5089203;28;19964;-70
2022/08/16 04:43:18;;;;;;;;;;;;;;;;;;5088329;28;20008;-68
2022/08/16 04:45:44;;;;;;;;;;;;;;;;;;5090118;28;19968;-68
2022/08/16 04:48:10;;;;;;;;;;;;;;;;;;5104887;28;19927;-68
2022/08/16 04:50:37;;;;;;;;;;;;;;;;;;5090125;28;20006;-68
2022/08/16 04:53:03;;;;;;;;;;;;;;;;;;5089555;28;20290;-68
2022/08/16 04:55:29;;;;;;;;;;;;;;;;;;5089887;28;19924;-67
2022/08/16 04:57:55;;;;;;;;;;;;;;;;;;5089301;28;20322;-68
2022/08/16 05:00:21;;;;;;;;;;;;;;;;;;5089948;28;20000;-68
2022/08/16 05:02:47;;;;;;;;;;;;;;;;;;5090276;28;20002;-68
2022/08/16 05:05:14;;;;;;;;;;;;;;;;;;5089516;28;20053;-67
2022/08/16 05:07:40;;;;;;;;;;;;;;;;;;5090146;28;19953;-68
2022/08/16 05:10:06;;;;;;;;;;;;;;;;;;5089425;28;19920;-68
2022/08/16 05:12:31;;;;;;;;;;;;;;;;;;5089925;28;19931;-68
2022/08/16 05:14:57;;;;;;;;;;;;;;;;;;5089383;28;19924;-68
2022/08/16 05:17:23;;;;;;;;;;;;;;;;;;5090014;28;20263;-68
2022/08/16 05:19:49;;;;;;;;;;;;;;;;;;5089806;28;19923;-68
2022/08/16 05:22:15;;;;;;;;;;;;;;;;;;5089486;28;19940;-68
2022/08/16 05:24:41;;;;;;;;;;;;;;;;;;5105509;28;19926;-68
2022/08/16 05:27:07;;;;;;;;;;;;;;;;;;5089339;28;20252;-68
2022/08/16 05:29:33;;;;;;;;;;;;;;;;;;5090326;28;19942;-68
2022/08/16 05:32:00;;;;;;;;;;;;;;;;;;5105156;28;20004;-68
2022/08/16 05:34:26;;;;;;;;;;;;;;;;;;5089744;28;20062;-68
2022/08/16 05:36:56;;;;;;;;;;;;;;;;;;5089576;28;20279;-68
2022/08/16 05:39:21;;;;;;;;;;;;;;;;;;5089242;28;19965;-68
2022/08/16 05:41:47;;;;;;;;;;;;;;;;;;5088851;28;20023;-69
2022/08/16 05:44:13;;;;;;;;;;;;;;;;;;5088531;28;20006;-68
2022/08/16 05:46:41;;;;;;;;;;;;;;;;;;5089119;28;20075;-71
2022/08/16 05:49:07;;;;;;;;;;;;;;;;;;5103466;28;20014;-71
2022/08/16 05:51:33;;;;;;;;;;;;;;;;;;5088634;28;19927;-71
2022/08/16 05:53:59;;;;;;;;;;;;;;;;;;5086733;28;19928;-71
2022/08/16 05:56:25;;;;;;;;;;;;;;;;;;5088914;28;20010;-71
2022/08/16 05:58:51;;;;;;;;;;;;;;;;;;5088477;28;19919;-70
2022/08/16 06:01:17;;;;;;;;;;;;;;;;;;5088078;28;19924;-70
2022/08/16 06:03:44;;;;;;;;;;;;;;;;;;5088512;28;19942;-71
2022/08/16 06:06:10;;;;;;;;;;;;;;;;;;5088061;28;20345;-71
2022/08/16 06:08:36;;;;;;;;;;;;;;;;;;5103995;28;19920;-72
2022/08/16 06:11:02;;;;;;;;;;;;;;;;;;5088419;28;20033;-71
2022/08/16 06:13:28;;;;;;;;;;;;;;;;;;5088551;28;20427;-70
2022/08/16 06:15:54;;;;;;;;;;;;;;;;;;5087471;28;19919;-71
2022/08/16 06:18:20;;;;;;;;;;;;;;;;;;5087832;28;19992;-72
2022/08/16 06:20:46;;;;;;;;;;;;;;;;;;5088216;28;19926;-69
2022/08/16 06:23:12;;;;;;;;;;;;;;;;;;5087651;28;20345;-69
2022/08/16 06:25:38;;;;;;;;;;;;;;;;;;5088317;28;19946;-70
2022/08/16 06:28:04;;;;;;;;;;;;;;;;;;5087501;28;20447;-71
2022/08/16 06:30:31;;;;;;;;;;;;;;;;;;5088414;28;19950;-71
2022/08/16 06:32:58;;;;;;;;;;;;;;;;;;5088107;28;19936;-70
2022/08/16 06:35:24;;;;;;;;;;;;;;;;;;5087488;28;19920;-71
2022/08/16 06:37:51;;;;;;;;;;;;;;;;;;5103484;28;19966;-71
2022/08/16 06:40:17;;;;;;;;;;;;;;;;;;5088315;28;19920;-70
2022/08/16 06:42:43;;;;;;;;;;;;;;;;;;5087823;28;19946;-70
2022/08/16 06:45:09;;;;;;;;;;;;;;;;;;5087506;28;20023;-70
2022/08/16 06:47:35;;;;;;;;;;;;;;;;;;5088261;28;19996;-69
2022/08/16 06:50:02;;;;;;;;;;;;;;;;;;5087863;28;19965;-70
2022/08/16 06:52:31;;;;;;;;;;;;;;;;;;5087468;28;19931;-69
2022/08/16 06:54:57;;;;;;;;;;;;;;;;;;5088115;28;19964;-71
2022/08/16 06:57:23;;;;;;;;;;;;;;;;;;5087414;28;19931;-72
2022/08/16 06:59:49;;;;;;;;;;;;;;;;;;5087903;28;19981;-70
2022/08/16 07:02:16;;;;;;;;;;;;;;;;;;5087479;28;19939;-72
2022/08/16 07:04:42;;;;;;;;;;;;;;;;;;5088154;28;20048;-73
2022/08/16 07:07:11;;;;;;;;;;;;;;;;;;5087331;28;19920;-72
2022/08/16 07:09:37;;;;;;;;;;;;;;;;;;5088459;28;19920;-71
2022/08/16 07:12:06;;;;;;;;;;;;;;;;;;5086536;28;19920;-76
2022/08/16 07:14:32;;;;;;;;;;;;;;;;;;5103086;28;19920;-71
2022/08/16 07:16:58;;;;;;;;;;;;;;;;;;5087492;28;19923;-74
2022/08/16 07:19:24;;;;;;;;;;;;;;;;;;5086968;28;19923;-74
2022/08/16 07:21:53;;;;;;;;;;;;;;;;;;5087698;28;20035;-73
2022/08/16 07:24:19;;;;;;;;;;;;;;;;;;5087375;28;20014;-76
2022/08/16 07:26:45;;;;;;;;;;;;;;;;;;5087341;28;19987;-74
2022/08/16 07:29:11;;;;;;;;;;;;;;;;;;5089532;28;20363;-73
2022/08/16 07:31:37;;;;;;;;;;;;;;;;;;5091028;28;19920;-69
2022/08/16 07:34:03;;;;;;;;;;;;;;;;;;5090841;28;20368;-76
2022/08/16 07:36:29;;;;;;;;;;;;;;;;;;5090914;28;20462;-74
2022/08/16 07:38:55;;;;;;;;;;;;;;;;;;5091629;28;20000;-73
2022/08/16 07:41:21;;;;;;;;;;;;;;;;;;5090991;28;20384;-70
2022/08/16 07:43:50;;;;;;;;;;;;;;;;;;5091249;28;20386;-69
2022/08/16 07:46:16;;;;;;;;;;;;;;;;;;5090551;28;19919;-70
2022/08/16 07:48:42;;;;;;;;;;;;;;;;;;5091018;28;19931;-82
2022/08/16 07:51:08;;;;;;;;;;;;;;;;;;5091158;28;20029;-70
2022/08/16 07:53:34;;;;;;;;;;;;;;;;;;5090664;28;20030;-69
2022/08/16 07:56:00;;;;;;;;;;;;;;;;;;5089660;28;19935;-68
2022/08/16 07:58:27;;;;;;;;;;;;;;;;;;5090452;28;19920;-68
2022/08/16 08:00:53;;;;;;;;;;;;;;;;;;5090813;28;20033;-71
2022/08/16 08:03:21;;;;;;;;;;;;;;;;;;5090512;28;20407;-71
2022/08/16 08:05:47;;;;;;;;;;;;;;;;;;5106410;28;19920;-72
2022/08/16 08:08:13;;;;;;;;;;;;;;;;;;5090977;28;19978;-69
2022/08/16 08:10:39;;;;;;;;;;;;;;;;;;5106465;28;19966;-69
2022/08/16 08:13:05;;;;;;;;;;;;;;;;;;5106015;28;19946;-69
2022/08/16 08:15:30;;;;;;;;;;;;;;;;;;5090545;28;20022;-69
2022/08/16 08:17:56;;;;;;;;;;;;;;;;;;5089326;28;19939;-68
2022/08/16 08:20:25;;;;;;;;;;;;;;;;;;5090936;28;19924;-71
2022/08/16 08:22:52;;;;;;;;;;;;;;;;;;5090538;28;19920;-68
2022/08/16 08:25:19;;;;;;;;;;;;;;;;;;5090031;28;19931;-69
2022/08/16 08:27:45;;;;;;;;;;;;;;;;;;5090651;28;19967;-71
2022/08/16 08:30:12;;;;;;;;;;;;;;;;;;5090647;28;19999;-70
2022/08/16 08:32:38;;;;;;;;;;;;;;;;;;5105443;28;19920;-69
2022/08/16 08:35:04;;;;;;;;;;;;;;;;;;5090163;28;19975;-69
2022/08/16 08:37:30;;;;;;;;;;;;;;;;;;5088685;28;20014;-71
2022/08/16 08:39:56;;;;;;;;;;;;;;;;;;5089436;28;19973;-71
2022/08/16 08:42:22;;;;;;;;;;;;;;;;;;5089676;28;19944;-72
2022/08/16 08:44:48;;;;;;;;;;;;;;;;;;5089802;28;19946;-71
2022/08/16 08:47:14;;;;;;;;;;;;;;;;;;5089966;28;19995;-69
2022/08/16 08:49:40;;;;;;;;;;;;;;;;;;5089828;28;20229;-70
2022/08/16 08:52:06;;;;;;;;;;;;;;;;;;5089881;28;19920;-73
2022/08/16 08:54:32;;;;;;;;;;;;;;;;;;5089624;28;19972;-71
2022/08/16 08:56:58;;;;;;;;;;;;;;;;;;5090158;28;19920;-71
2022/08/16 08:59:24;;;;;;;;;;;;;;;;;;5089398;28;20356;-72
2022/08/16 09:01:51;;;;;;;;;;;;;;;;;;5089625;28;19920;-71
2022/08/16 09:04:17;;;;;;;;;;;;;;;;;;5088900;28;19980;-70
2022/08/16 09:06:43;;;;;;;;;;;;;;;;;;5089500;28;20114;-69
2022/08/16 09:09:09;;;;;;;;;;;;;;;;;;5089929;28;20334;-69
2022/08/16 09:11:36;;;;;;;;;;;;;;;;;;5089451;28;19927;-71
2022/08/16 09:14:02;;;;;;;;;;;;;;;;;;5089773;28;19920;-70
2022/08/16 09:16:28;;;;;;;;;;;;;;;;;;5104233;28;19920;-71
2022/08/16 09:18:56;;;;;;;;;;;;;;;;;;5089211;28;20053;-69
2022/08/16 09:21:22;;;;;;;;;;;;;;;;;;5089538;28;19942;-72
2022/08/16 09:23:48;;;;;;;;;;;;;;;;;;5088072;28;19932;-70
2022/08/16 09:26:17;;;;;;;;;;;;;;;;;;5089138;28;20014;-70
2022/08/16 09:28:44;;;;;;;;;;;;;;;;;;5089133;28;20113;-70
2022/08/16 09:31:11;;;;;;;;;;;;;;;;;;5089373;28;19931;-73
2022/08/16 09:33:37;;;;;;;;;;;;;;;;;;5088951;28;19927;-70
2022/08/16 09:36:04;;;;;;;;;;;;;;;;;;5104487;28;19920;-74
2022/08/16 09:38:30;;;;;;;;;;;;;;;;;;5104398;28;20033;-78
2022/08/16 09:40:56;;;;;;;;;;;;;;;;;;5089535;28;19919;-70
2022/08/16 09:43:23;;;;;;;;;;;;;;;;;;5089051;28;19940;-70
2022/08/16 09:45:49;;;;;;;;;;;;;;;;;;5089017;28;19920;-72
2022/08/16 09:48:15;;;;;;;;;;;;;;;;;;5089299;28;19920;-73
2022/08/16 09:50:42;;;;;;;;;;;;;;;;;;5087742;28;19923;-70
2022/08/16 09:53:08;;;;;;;;;;;;;;;;;;5088373;28;19987;-70
2022/08/16 09:55:33;;;;;;;;;;;;;;;;;;5088660;28;19920;-70
2022/08/16 09:57:59;;;;;;;;;;;;;;;;;;5088958;28;20352;-75
2022/08/16 10:00:25;;;;;;;;;;;;;;;;;;5088381;28;19989;-71
2022/08/16 10:02:51;;;;;;;;;;;;;;;;;;5103463;28;19920;-73
2022/08/16 10:05:17;;;;;;;;;;;;;;;;;;5088512;28;19930;-73
2022/08/16 10:07:44;;;;;;;;;;;;;;;;;;5087987;28;19976;-74
2022/08/16 10:10:10;;;;;;;;;;;;;;;;;;5088193;28;19924;-71
2022/08/16 10:15:20;;;;;;;;;;;;;;;;;;5088040;28;20076;-73
2022/08/16 10:17:46;;;;;;;;;;;;;;;;;;5088112;28;19967;-74
2022/08/16 10:20:13;;;;;;;;;;;;;;;;;;5088013;28;19927;-77
2022/08/16 10:22:39;;;;;;;;;;;;;;;;;;5103017;28;20356;-70
2022/08/16 10:25:05;;;;;;;;;;;;;;;;;;5087935;28;19975;-72
2022/08/16 10:27:32;;;;;;;;;;;;;;;;;;5087834;28;19920;-74
2022/08/16 10:29:58;;;;;;;;;;;;;;;;;;5103677;28;19936;-70
2022/08/16 10:32:24;;;;;;;;;;;;;;;;;;5088122;28;19981;-72
2022/08/16 10:34:50;;;;;;;;;;;;;;;;;;5087210;28;19920;-72
2022/08/16 10:37:16;;;;;;;;;;;;;;;;;;5088959;28;19920;-71
2022/08/16 10:39:42;;;;;;;;;;;;;;;;;;5088069;28;20015;-73
2022/08/16 10:42:08;;;;;;;;;;;;;;;;;;5088525;28;19920;-77
2022/08/16 10:44:34;;;;;;;;;;;;;;;;;;5088041;28;19920;-75
2022/08/16 10:47:00;;;;;;;;;;;;;;;;;;5088329;28;19924;-73
2022/08/16 10:49:26;;;;;;;;;;;;;;;;;;5086710;28;19924;-76
2022/08/16 10:51:54;;;;;;;;;;;;;;;;;;5087304;28;20010;-71
2022/08/16 10:54:20;;;;;;;;;;;;;;;;;;5087475;28;19923;-70
2022/08/16 10:56:46;;;;;;;;;;;;;;;;;;5087201;28;19938;-71
2022/08/16 10:59:12;;;;;;;;;;;;;;;;;;5087987;28;19920;-70
2022/08/16 11:01:39;;;;;;;;;;;;;;;;;;5087236;28;20412;-71
2022/08/16 11:04:06;;;;;;;;;;;;;;;;;;5091932;28;19927;-68
2022/08/16 11:06:32;;;;;;;;;;;;;;;;;;5091787;28;19920;-70
2022/08/16 11:08:58;;;;;;;;;;;;;;;;;;5091167;28;19920;-70
2022/08/16 11:11:33;;;;;;;;;;;;;;;;;;5091493;28;19924;-69
2022/08/16 11:13:59;;;;;;;;;;;;;;;;;;5091115;28;19920;-73
2022/08/16 11:16:27;;;;;;;;;;;;;;;;;;5091961;28;19920;-74
2022/08/16 11:18:53;;;;;;;;;;;;;;;;;;5091858;28;19932;-72
2022/08/16 11:21:20;;;;;;;;;;;;;;;;;;5091590;28;19943;-73
2022/08/16 11:23:46;;;;;;;;;;;;;;;;;;5090995;28;19919;-72
2022/08/16 11:26:12;;;;;;;;;;;;;;;;;;5090453;28;19920;-69
2022/08/16 11:28:37;;;;;;;;;;;;;;;;;;5091769;28;20080;-72
2022/08/16 11:31:05;;;;;;;;;;;;;;;;;;5090563;28;19924;-71
2022/08/16 11:33:30;;;;;;;;;;;;;;;;;;5091634;28;20011;-71
2022/08/16 11:35:56;;;;;;;;;;;;;;;;;;5090776;28;20390;-73
2022/08/16 11:38:22;;;;;;;;;;;;;;;;;;5091021;28;20247;-77
2022/08/16 11:40:50;;;;;;;;;;;;;;;;;;5091147;28;20010;-75
2022/08/16 11:43:15;;;;;;;;;;;;;;;;;;5091248;28;19938;-82
2022/08/16 11:45:41;;;;;;;;;;;;;;;;;;5090782;28;20344;-69
2022/08/16 11:48:07;;;;;;;;;;;;;;;;;;5106648;28;20325;-86
2022/08/16 11:50:33;;;;;;;;;;;;;;;;;;5090925;28;20071;-77
2022/08/16 11:52:59;;;;;;;;;;;;;;;;;;5090222;28;19923;-80
2022/08/16 11:55:25;;;;;;;;;;;;;;;;;;5091619;28;19943;-79
2022/08/16 11:57:51;;;;;;;;;;;;;;;;;;5090320;28;19919;-74
2022/08/16 12:00:17;;;;;;;;;;;;;;;;;;5106137;28;19919;-77
2022/08/16 12:02:43;;;;;;;;;;;;;;;;;;5090436;28;19947;-78
2022/08/16 12:05:09;;;;;;;;;;;;;;;;;;5090866;28;19956;-82
2022/08/16 12:07:35;;;;;;;;;;;;;;;;;;5090887;28;20098;-75
2022/08/16 12:10:01;;;;;;;;;;;;;;;;;;5090566;28;19927;-81
2022/08/16 12:12:27;;;;;;;;;;;;;;;;;;5091007;28;19920;-77
2022/08/16 12:14:53;;;;;;;;;;;;;;;;;;5089193;28;20286;-77
2022/08/16 12:17:21;;;;;;;;;;;;;;;;;;5105932;28;19993;-76
2022/08/16 12:19:50;;;;;;;;;;;;;;;;;;5089648;28;19996;-77
2022/08/16 12:22:16;;;;;;;;;;;;;;;;;;5090695;28;19954;-80
2022/08/16 12:24:42;;;;;;;;;;;;;;;;;;5090486;28;19964;-78
2022/08/16 12:27:11;;;;;;;;;;;;;;;;;;5090400;28;19946;-75
2022/08/16 12:29:37;;;;;;;;;;;;;;;;;;5090536;28;19924;-82
2022/08/16 12:32:03;;;;;;;;;;;;;;;;;;5090568;28;19932;-79
2022/08/16 12:34:29;;;;;;;;;;;;;;;;;;5089591;28;19992;-77
2022/08/16 12:36:55;;;;;;;;;;;;;;;;;;5088042;28;19928;-73
2022/08/16 12:39:21;;;;;;;;;;;;;;;;;;5089012;28;19927;-74
2022/08/16 12:41:47;;;;;;;;;;;;;;;;;;5105827;28;20328;-74
2022/08/16 12:44:13;;;;;;;;;;;;;;;;;;5090337;28;20031;-72
2022/08/16 12:46:39;;;;;;;;;;;;;;;;;;5090223;28;20006;-77
2022/08/16 12:49:06;;;;;;;;;;;;;;;;;;5089597;28;19974;-76
2022/08/16 12:51:33;;;;;;;;;;;;;;;;;;5091744;28;19927;-74
2022/08/16 12:53:59;;;;;;;;;;;;;;;;;;5097554;28;19931;-82
2022/08/16 12:56:25;;;;;;;;;;;;;;;;;;5096555;28;19931;-80
2022/08/16 12:58:51;;;;;;;;;;;;;;;;;;5092803;28;20356;-77
2022/08/16 13:01:17;;;;;;;;;;;;;;;;;;5090250;28;19920;-74
2022/08/16 13:03:44;;;;;;;;;;;;;;;;;;5090237;28;19991;-81
2022/08/16 13:06:10;;;;;;;;;;;;;;;;;;5087983;28;19936;-75
2022/08/16 13:08:36;;;;;;;;;;;;;;;;;;5089625;28;20006;-75
2022/08/16 13:11:03;;;;;;;;;;;;;;;;;;5089578;28;19927;-80
2022/08/16 13:13:29;;;;;;;;;;;;;;;;;;5089827;28;19930;-76
2022/08/16 13:15:56;;;;;;;;;;;;;;;;;;5089039;28;20248;-76
2022/08/16 13:18:22;;;;;;;;;;;;;;;;;;5088117;28;20340;-82
2022/08/16 13:20:48;;;;;;;;;;;;;;;;;;5090836;28;19938;-79
2022/08/16 13:23:14;;;;;;;;;;;;;;;;;;5088836;28;19999;-73
2022/08/16 13:25:40;;;;;;;;;;;;;;;;;;5089063;28;19924;-77
2022/08/16 13:28:06;;;;;;;;;;;;;;;;;;5088717;28;20264;-79
2022/08/16 13:30:31;;;;;;;;;;;;;;;;;;5089056;28;19927;-75
2022/08/16 13:32:57;;;;;;;;;;;;;;;;;;5088767;28;19979;-75
2022/08/16 13:35:23;;;;;;;;;;;;;;;;;;5088757;28;19997;-74
2022/08/16 13:37:49;;;;;;;;;;;;;;;;;;5089058;28;19924;-82
2022/08/16 13:40:16;;;;;;;;;;;;;;;;;;5104063;28;19928;-75
2022/08/16 13:42:42;;;;;;;;;;;;;;;;;;5088909;28;20055;-76
2022/08/16 13:45:08;;;;;;;;;;;;;;;;;;5088857;28;19966;-74
2022/08/16 13:47:34;;;;;;;;;;;;;;;;;;5089314;28;19928;-73
2022/08/16 13:50:00;;;;;;;;;;;;;;;;;;5088685;28;19994;-81
2022/08/16 13:52:26;;;;;;;;;;;;;;;;;;5087226;28;19931;-75
2022/08/16 13:54:52;;;;;;;;;;;;;;;;;;5087587;28;19943;-71
2022/08/16 13:57:18;;;;;;;;;;;;;;;;;;5103782;28;20053;-84
2022/08/16 13:59:44;;;;;;;;;;;;;;;;;;5088935;28;20263;-75
2022/08/16 14:02:19;;;;;;;;;;;;;;;;;;5105098;28;19920;-73
2022/08/16 14:04:45;;;;;;;;;;;;;;;;;;5088858;28;20015;-77
2022/08/16 14:07:12;;;;;;;;;;;;;;;;;;5088398;28;20073;-73
2022/08/16 14:09:38;;;;;;;;;;;;;;;;;;5088106;28;19938;-74
2022/08/16 14:12:03;;;;;;;;;;;;;;;;;;5087612;28;19920;-74
2022/08/16 14:14:29;;;;;;;;;;;;;;;;;;5087781;28;19924;-77
2022/08/16 14:16:55;;;;;;;;;;;;;;;;;;5088003;28;20090;-77
2022/08/16 14:19:21;;;;;;;;;;;;;;;;;;5087726;28;19931;-76
2022/08/16 14:21:47;;;;;;;;;;;;;;;;;;5087895;28;20003;-84
2022/08/16 14:24:13;;;;;;;;;;;;;;;;;;5088039;28;20247;-72
2022/08/16 14:26:39;;;;;;;;;;;;;;;;;;5088367;28;19920;-72
2022/08/16 14:29:05;;;;;;;;;;;;;;;;;;5087473;28;19931;-74
2022/08/16 14:31:31;;;;;;;;;;;;;;;;;;5088013;28;20053;-78
2022/08/16 14:33:57;;;;;;;;;;;;;;;;;;5087684;28;19920;-81
2022/08/16 14:36:23;;;;;;;;;;;;;;;;;;5086799;28;19927;-81
2022/08/16 14:38:49;;;;;;;;;;;;;;;;;;5087248;28;19920;-74
2022/08/16 14:41:15;;;;;;;;;;;;;;;;;;5087277;28;19981;-75
2022/08/16 14:43:41;;;;;;;;;;;;;;;;;;5087167;28;19936;-78
2022/08/16 14:46:07;;;;;;;;;;;;;;;;;;5085509;28;19920;-75
2022/08/16 14:48:33;;;;;;;;;;;;;;;;;;5087344;28;20019;-74
2022/08/16 14:50:59;;;;;;;;;;;;;;;;;;5087136;28;19920;-83
2022/08/16 14:53:25;;;;;;;;;;;;;;;;;;5086889;28;19998;-73
2022/08/16 14:55:51;;;;;;;;;;;;;;;;;;5102755;28;19923;-74
2022/08/16 14:58:18;;;;;;;;;;;;;;;;;;5086833;28;19920;-84
2022/08/16 15:00:44;;;;;;;;;;;;;;;;;;5087345;28;19932;-70
2022/08/16 15:03:10;;;;;;;;;;;;;;;;;;5087406;28;19946;-70
2022/08/16 15:05:36;;;;;;;;;;;;;;;;;;5086909;28;20076;-69
2022/08/16 15:08:01;;;;;;;;;;;;;;;;;;5088063;28;19920;-70
2022/08/16 15:10:28;;;;;;;;;;;;;;;;;;5087632;28;19920;-73
2022/08/16 15:12:54;;;;;;;;;;;;;;;;;;5087849;28;20014;-69
2022/08/16 15:15:20;;;;;;;;;;;;;;;;;;5087811;28;19928;-72
2022/08/16 15:17:46;;;;;;;;;;;;;;;;;;5087545;28;19984;-71
2022/08/16 15:20:12;;;;;;;;;;;;;;;;;;5086981;28;20040;-72
2022/08/16 15:22:38;;;;;;;;;;;;;;;;;;5087418;28;20006;-75
2022/08/16 15:25:04;;;;;;;;;;;;;;;;;;5087060;28;20405;-76
2022/08/16 15:27:35;;;;;;;;;;;;;;;;;;5086869;28;19920;-74
2022/08/16 15:30:01;;;;;;;;;;;;;;;;;;5085664;28;19920;-72
2022/08/16 15:32:29;;;;;;;;;;;;;;;;;;5087094;28;19939;-74
2022/08/16 15:34:57;;;;;;;;;;;;;;;;;;5085345;28;20292;-73
2022/08/16 15:37:23;;;;;;;;;;;;;;;;;;5087150;28;19931;-71
2022/08/16 15:39:49;;;;;;;;;;;;;;;;;;5086790;28;19942;-70
2022/08/16 15:42:15;;;;;;;;;;;;;;;;;;5087258;28;20324;-72
2022/08/16 15:44:41;;;;;;;;;;;;;;;;;;5087758;28;20014;-71
2022/08/16 15:47:08;;;;;;;;;;;;;;;;;;5087290;28;19968;-72
2022/08/16 15:49:36;;;;;;;;;;;;;;;;;;5089715;28;20010;-79
2022/08/16 15:52:02;;;;;;;;;;;;;;;;;;5090755;28;20010;-76
2022/08/16 15:54:28;;;;;;;;;;;;;;;;;;5089888;28;20395;-76
2022/08/16 15:56:54;;;;;;;;;;;;;;;;;;5090440;28;19926;-73
2022/08/16 15:59:20;;;;;;;;;;;;;;;;;;5090725;28;20301;-72
2022/08/16 16:01:46;;;;;;;;;;;;;;;;;;5089708;28;19999;-76
2022/08/16 16:04:14;;;;;;;;;;;;;;;;;;5090798;28;20359;-73
2022/08/16 16:06:40;;;;;;;;;;;;;;;;;;5090795;28;19997;-75
2022/08/16 16:09:05;;;;;;;;;;;;;;;;;;5090449;28;19931;-75
2022/08/16 16:11:31;;;;;;;;;;;;;;;;;;5089876;28;19931;-76
2022/08/16 16:13:57;;;;;;;;;;;;;;;;;;5090475;28;19920;-72
2022/08/16 16:16:23;;;;;;;;;;;;;;;;;;5088751;28;19928;-72
2022/08/16 16:18:49;;;;;;;;;;;;;;;;;;5091329;28;19966;-77
2022/08/16 16:21:16;;;;;;;;;;;;;;;;;;5090845;28;19999;-73
2022/08/16 16:23:43;;;;;;;;;;;;;;;;;;5090444;28;19935;-75
2022/08/16 16:26:09;;;;;;;;;;;;;;;;;;5090536;28;19963;-75
2022/08/16 16:28:35;;;;;;;;;;;;;;;;;;5090186;28;19927;-76
2022/08/16 16:31:03;;;;;;;;;;;;;;;;;;5090699;28;19924;-74
2022/08/16 16:33:29;;;;;;;;;;;;;;;;;;5089900;28;19932;-73
2022/08/16 16:35:55;;;;;;;;;;;;;;;;;;5089675;28;20027;-75
2022/08/16 16:38:21;;;;;;;;;;;;;;;;;;5088971;28;19920;-75
2022/08/16 16:40:47;;;;;;;;;;;;;;;;;;5089585;28;19965;-75